sensor_id;sensor_type;location;lat;lon;timestamp;pressure;altitude;pressure_sealevel;temperature;humidity
13478;BME280;12598;62.382;17.344;2022-10-31T00:00:05;101281.69;;;20.08;23.98
13478;BME280;12598;62.382;17.344;2022-10-31T00:01:17;101188.97;;;19.50;23.94
13478;BME280;12598;62.382;17.344;2022-10-31T00:02:19;101295.38;;;20.14;24.00
13478;BME280;12598;62.382;17.344;2022-10-31T00:03:21;101306.53;;;20.19;23.90
13478;BME280;12598;62.382;17.344;2022-10-31T00:04:23;101180.75;;;19.51;24.02
13478;BME280;12598;62.382;17.344;2022-10-31T00:05:24;101314.97;;;20.24;23.76
13478;BME280;12598;62.382;17.344;2022-10-31T00:06:26;101295.53;;;20.13;24.14
13478;BME280;12598;62.382;17.344;2022-10-31T00:07:28;101290.63;;;20.08;23.81
13478;BME280;12598;62.382;17.344;2022-10-31T00:08:30;101298.06;;;20.14;23.95
13478;BME280;12598;62.382;17.344;2022-10-31T00:09:32;101268.16;;;19.90;23.75
13478;BME280;12598;62.382;17.344;2022-10-31T00:10:37;101297.50;;;20.11;23.81
13478;BME280;12598;62.382;17.344;2022-10-31T00:11:39;101241.69;;;19.78;23.95
13478;BME280;12598;62.382;17.344;2022-10-31T00:12:41;101173.47;;;19.44;23.98
13478;BME280;12598;62.382;17.344;2022-10-31T00:13:42;101182.44;;;19.52;23.75
13478;BME280;12598;62.382;17.344;2022-10-31T00:14:44;101283.56;;;20.07;23.72
13478;BME280;12598;62.382;17.344;2022-10-31T00:15:46;101258.84;;;19.94;24.05
13478;BME280;12598;62.382;17.344;2022-10-31T00:16:48;101294.00;;;20.10;24.04
13478;BME280;12598;62.382;17.344;2022-10-31T00:17:50;101286.47;;;20.14;24.20
13478;BME280;12598;62.382;17.344;2022-10-31T00:18:53;101166.44;;;19.34;23.82
13478;BME280;12598;62.382;17.344;2022-10-31T00:19:55;101020.09;;;18.49;23.84
13478;BME280;12598;62.382;17.344;2022-10-31T00:21:00;101310.31;;;20.26;23.73
13478;BME280;12598;62.382;17.344;2022-10-31T00:22:03;101317.38;;;20.27;23.77
13478;BME280;12598;62.382;17.344;2022-10-31T00:23:05;101266.44;;;19.99;24.25
13478;BME280;12598;62.382;17.344;2022-10-31T00:24:07;101238.81;;;19.89;23.97
13478;BME280;12598;62.382;17.344;2022-10-31T00:25:09;101119.78;;;19.08;23.46
13478;BME280;12598;62.382;17.344;2022-10-31T00:26:11;101149.53;;;19.24;24.25
13478;BME280;12598;62.382;17.344;2022-10-31T00:27:13;101249.00;;;19.85;23.92
13478;BME280;12598;62.382;17.344;2022-10-31T00:28:15;101243.63;;;19.85;24.10
13478;BME280;12598;62.382;17.344;2022-10-31T00:29:17;101166.72;;;19.40;24.03
13478;BME280;12598;62.382;17.344;2022-10-31T00:30:19;101152.34;;;19.32;24.35
13478;BME280;12598;62.382;17.344;2022-10-31T00:31:20;101147.84;;;19.23;24.27
13478;BME280;12598;62.382;17.344;2022-10-31T00:32:23;101148.09;;;19.29;23.72
13478;BME280;12598;62.382;17.344;2022-10-31T00:33:25;101296.91;;;20.17;24.20
13478;BME280;12598;62.382;17.344;2022-10-31T00:34:27;101291.53;;;20.17;24.20
13478;BME280;12598;62.382;17.344;2022-10-31T00:35:29;101256.34;;;19.83;23.98
13478;BME280;12598;62.382;17.344;2022-10-31T00:36:31;101228.69;;;19.73;24.22
13478;BME280;12598;62.382;17.344;2022-10-31T00:37:33;101251.84;;;19.84;24.10
13478;BME280;12598;62.382;17.344;2022-10-31T00:38:34;101127.25;;;19.14;24.37
13478;BME280;12598;62.382;17.344;2022-10-31T00:39:36;101240.84;;;19.77;24.22
13478;BME280;12598;62.382;17.344;2022-10-31T00:40:38;101152.22;;;19.24;24.15
13478;BME280;12598;62.382;17.344;2022-10-31T00:41:40;101276.94;;;19.92;24.33
13478;BME280;12598;62.382;17.344;2022-10-31T00:42:46;101154.63;;;19.27;24.21
13478;BME280;12598;62.382;17.344;2022-10-31T00:43:48;101238.16;;;19.77;24.09
13478;BME280;12598;62.382;17.344;2022-10-31T00:44:49;101252.13;;;19.81;24.43
13478;BME280;12598;62.382;17.344;2022-10-31T00:45:51;101136.56;;;19.19;24.29
13478;BME280;12598;62.382;17.344;2022-10-31T00:46:53;101285.09;;;20.10;24.60
13478;BME280;12598;62.382;17.344;2022-10-31T00:47:55;101264.06;;;19.96;24.42
13478;BME280;12598;62.382;17.344;2022-10-31T00:48:58;101133.19;;;19.17;24.11
13478;BME280;12598;62.382;17.344;2022-10-31T00:50:00;101226.16;;;19.72;24.20
13478;BME280;12598;62.382;17.344;2022-10-31T00:51:01;101273.25;;;19.93;24.20
13478;BME280;12598;62.382;17.344;2022-10-31T00:52:03;101218.09;;;19.72;24.22
13478;BME280;12598;62.382;17.344;2022-10-31T00:53:05;101149.13;;;19.19;24.32
13478;BME280;12598;62.382;17.344;2022-10-31T00:54:07;101138.81;;;19.24;24.23
13478;BME280;12598;62.382;17.344;2022-10-31T00:55:09;101250.97;;;19.83;24.03
13478;BME280;12598;62.382;17.344;2022-10-31T00:56:11;101135.03;;;19.17;24.23
13478;BME280;12598;62.382;17.344;2022-10-31T00:57:14;101244.19;;;19.89;23.79
13478;BME280;12598;62.382;17.344;2022-10-31T00:58:16;101259.81;;;19.93;23.79
13478;BME280;12598;62.382;17.344;2022-10-31T00:59:17;101136.13;;;19.14;23.82
13478;BME280;12598;62.382;17.344;2022-10-31T01:00:19;101234.06;;;19.73;23.95
13478;BME280;12598;62.382;17.344;2022-10-31T01:01:22;101093.16;;;18.97;24.11
13478;BME280;12598;62.382;17.344;2022-10-31T01:02:24;101106.53;;;19.06;24.39
13478;BME280;12598;62.382;17.344;2022-10-31T01:03:29;101262.78;;;20.00;24.30
13478;BME280;12598;62.382;17.344;2022-10-31T01:04:31;101115.09;;;19.10;24.32
13478;BME280;12598;62.382;17.344;2022-10-31T01:05:33;101125.31;;;19.16;23.99
13478;BME280;12598;62.382;17.344;2022-10-31T01:06:36;101247.28;;;19.84;24.17
13478;BME280;12598;62.382;17.344;2022-10-31T01:07:39;101040.25;;;18.53;24.26
13478;BME280;12598;62.382;17.344;2022-10-31T01:08:43;101262.28;;;19.87;24.26
13478;BME280;12598;62.382;17.344;2022-10-31T01:09:46;101132.75;;;19.12;24.33
13478;BME280;12598;62.382;17.344;2022-10-31T01:11:07;101187.13;;;19.50;24.33
13478;BME280;12598;62.382;17.344;2022-10-31T01:12:09;101181.63;;;19.52;24.09
13478;BME280;12598;62.382;17.344;2022-10-31T01:13:13;101225.31;;;19.71;24.15
13478;BME280;12598;62.382;17.344;2022-10-31T01:14:15;101233.78;;;19.76;24.20
13478;BME280;12598;62.382;17.344;2022-10-31T01:15:19;101146.97;;;19.13;23.99
13478;BME280;12598;62.382;17.344;2022-10-31T01:16:25;101235.16;;;19.80;24.37
13478;BME280;12598;62.382;17.344;2022-10-31T01:17:27;101256.34;;;19.83;24.19
13478;BME280;12598;62.382;17.344;2022-10-31T01:18:29;101095.72;;;18.89;24.07
13478;BME280;12598;62.382;17.344;2022-10-31T01:19:31;101244.63;;;19.84;24.12
13478;BME280;12598;62.382;17.344;2022-10-31T01:20:33;101223.94;;;19.67;24.12
13478;BME280;12598;62.382;17.344;2022-10-31T01:21:35;101224.47;;;19.71;24.45
13478;BME280;12598;62.382;17.344;2022-10-31T01:22:37;101232.09;;;19.75;23.99
13478;BME280;12598;62.382;17.344;2022-10-31T01:23:39;101245.91;;;19.80;23.68
13478;BME280;12598;62.382;17.344;2022-10-31T01:24:41;101126.97;;;19.07;24.11
13478;BME280;12598;62.382;17.344;2022-10-31T01:25:43;101102.34;;;18.94;24.05
13478;BME280;12598;62.382;17.344;2022-10-31T01:26:45;101211.81;;;19.63;24.20
13478;BME280;12598;62.382;17.344;2022-10-31T01:27:47;101076.84;;;18.81;24.51
13478;BME280;12598;62.382;17.344;2022-10-31T01:28:55;101264.78;;;19.88;24.52
13478;BME280;12598;62.382;17.344;2022-10-31T01:29:56;101258.31;;;19.81;24.50
13478;BME280;12598;62.382;17.344;2022-10-31T01:31:03;101271.03;;;19.89;24.60
13478;BME280;12598;62.382;17.344;2022-10-31T01:32:07;101270.84;;;19.90;24.35
13478;BME280;12598;62.382;17.344;2022-10-31T01:33:09;101227.03;;;19.63;24.14
13478;BME280;12598;62.382;17.344;2022-10-31T01:34:13;101267.47;;;19.88;24.53
13478;BME280;12598;62.382;17.344;2022-10-31T01:35:16;101197.16;;;19.48;24.21
13478;BME280;12598;62.382;17.344;2022-10-31T01:36:20;101125.59;;;19.03;23.96
13478;BME280;12598;62.382;17.344;2022-10-31T01:37:24;101278.22;;;19.88;24.14
13478;BME280;12598;62.382;17.344;2022-10-31T01:38:26;101205.91;;;19.50;24.34
13478;BME280;12598;62.382;17.344;2022-10-31T01:39:28;101229.28;;;19.67;24.07
13478;BME280;12598;62.382;17.344;2022-10-31T01:40:30;101165.75;;;19.22;24.24
13478;BME280;12598;62.382;17.344;2022-10-31T01:41:35;101270.63;;;19.84;24.39
13478;BME280;12598;62.382;17.344;2022-10-31T01:42:38;101204.22;;;19.49;24.42
13478;BME280;12598;62.382;17.344;2022-10-31T01:43:52;101257.91;;;19.86;24.34
13478;BME280;12598;62.382;17.344;2022-10-31T01:44:58;101261.41;;;19.86;24.38
13478;BME280;12598;62.382;17.344;2022-10-31T01:46:00;101077.72;;;18.72;24.29
13478;BME280;12598;62.382;17.344;2022-10-31T01:47:14;101119.38;;;19.03;24.20
13478;BME280;12598;62.382;17.344;2022-10-31T01:48:20;101234.38;;;19.70;24.32
13478;BME280;12598;62.382;17.344;2022-10-31T01:50:34;101219.84;;;19.63;24.22
13478;BME280;12598;62.382;17.344;2022-10-31T01:51:44;101229.81;;;19.71;24.56
13478;BME280;12598;62.382;17.344;2022-10-31T01:52:48;101223.38;;;19.64;24.17
13478;BME280;12598;62.382;17.344;2022-10-31T01:53:54;101252.81;;;19.83;24.60
13478;BME280;12598;62.382;17.344;2022-10-31T01:55:04;101031.50;;;18.51;24.41
13478;BME280;12598;62.382;17.344;2022-10-31T01:56:07;101237.44;;;19.75;24.35
13478;BME280;12598;62.382;17.344;2022-10-31T01:57:12;101238.56;;;19.82;24.63
13478;BME280;12598;62.382;17.344;2022-10-31T01:58:24;101161.91;;;19.34;24.29
13478;BME280;12598;62.382;17.344;2022-10-31T01:59:29;101201.94;;;19.54;24.33
13478;BME280;12598;62.382;17.344;2022-10-31T02:00:31;101205.47;;;19.55;24.26
13478;BME280;12598;62.382;17.344;2022-10-31T02:01:33;101061.66;;;18.72;24.07
13478;BME280;12598;62.382;17.344;2022-10-31T02:02:36;101236.94;;;19.62;24.41
13478;BME280;12598;62.382;17.344;2022-10-31T02:03:38;101121.63;;;19.07;24.59
13478;BME280;12598;62.382;17.344;2022-10-31T02:04:40;101134.88;;;19.18;24.46
13478;BME280;12598;62.382;17.344;2022-10-31T02:05:43;101096.25;;;18.92;24.57
13478;BME280;12598;62.382;17.344;2022-10-31T02:06:54;101231.78;;;19.78;24.09
13478;BME280;12598;62.382;17.344;2022-10-31T02:08:16;101230.66;;;19.81;24.04
13478;BME280;12598;62.382;17.344;2022-10-31T02:09:23;101118.78;;;19.18;24.55
13478;BME280;12598;62.382;17.344;2022-10-31T02:10:27;101187.13;;;19.50;24.16
13478;BME280;12598;62.382;17.344;2022-10-31T02:11:29;101118.06;;;19.07;24.35
13478;BME280;12598;62.382;17.344;2022-10-31T02:12:32;101107.25;;;18.99;24.61
13478;BME280;12598;62.382;17.344;2022-10-31T02:13:34;101083.88;;;18.82;24.26
13478;BME280;12598;62.382;17.344;2022-10-31T02:14:40;101178.56;;;19.38;24.44
13478;BME280;12598;62.382;17.344;2022-10-31T02:15:44;101105.84;;;18.95;24.65
13478;BME280;12598;62.382;17.344;2022-10-31T02:16:46;101226.50;;;19.59;24.56
13478;BME280;12598;62.382;17.344;2022-10-31T02:17:49;101087.81;;;18.87;24.18
13478;BME280;12598;62.382;17.344;2022-10-31T02:18:51;101073.47;;;18.79;24.18
13478;BME280;12598;62.382;17.344;2022-10-31T02:21:15;101219.66;;;19.74;24.15
13478;BME280;12598;62.382;17.344;2022-10-31T02:22:51;101054.31;;;18.74;24.24
13478;BME280;12598;62.382;17.344;2022-10-31T02:25:51;101226.81;;;19.83;23.83
13478;BME280;12598;62.382;17.344;2022-10-31T02:27:27;101201.06;;;19.63;23.91
13478;BME280;12598;62.382;17.344;2022-10-31T02:30:04;101249.28;;;19.82;24.36
13478;BME280;12598;62.382;17.344;2022-10-31T02:33:52;101232.28;;;19.64;24.11
13478;BME280;12598;62.382;17.344;2022-10-31T02:34:58;101257.34;;;19.73;24.53
13478;BME280;12598;62.382;17.344;2022-10-31T02:36:27;101183.41;;;19.25;24.27
13478;BME280;12598;62.382;17.344;2022-10-31T02:37:57;101220.84;;;19.62;24.07
13478;BME280;12598;62.382;17.344;2022-10-31T02:39:11;101241.13;;;19.74;23.96
13478;BME280;12598;62.382;17.344;2022-10-31T02:40:26;101251.84;;;19.74;24.08
13478;BME280;12598;62.382;17.344;2022-10-31T02:42:22;101248.59;;;19.80;24.65
13478;BME280;12598;62.382;17.344;2022-10-31T02:43:50;101183.22;;;19.36;24.34
13478;BME280;12598;62.382;17.344;2022-10-31T02:46:38;101255.94;;;19.78;24.44
13478;BME280;12598;62.382;17.344;2022-10-31T02:47:48;101189.84;;;19.41;24.19
13478;BME280;12598;62.382;17.344;2022-10-31T02:48:55;101174.78;;;19.31;24.46
13478;BME280;12598;62.382;17.344;2022-10-31T02:51:07;101205.09;;;19.40;24.40
13478;BME280;12598;62.382;17.344;2022-10-31T02:52:16;101231.59;;;19.53;24.46
13478;BME280;12598;62.382;17.344;2022-10-31T02:53:18;101133.34;;;19.06;24.38
13478;BME280;12598;62.382;17.344;2022-10-31T02:54:25;101199.19;;;19.37;24.68
13478;BME280;12598;62.382;17.344;2022-10-31T02:56:34;101174.06;;;19.29;24.42
13478;BME280;12598;62.382;17.344;2022-10-31T02:57:37;101177.75;;;19.28;24.31
13478;BME280;12598;62.382;17.344;2022-10-31T02:58:46;101190.44;;;19.35;24.54
13478;BME280;12598;62.382;17.344;2022-10-31T02:59:53;101074.88;;;18.73;24.47
13478;BME280;12598;62.382;17.344;2022-10-31T03:01:10;101186.47;;;19.39;24.43
13478;BME280;12598;62.382;17.344;2022-10-31T03:04:09;101203.91;;;19.52;24.49
13478;BME280;12598;62.382;17.344;2022-10-31T03:09:33;101117.09;;;19.08;24.14
13478;BME280;12598;62.382;17.344;2022-10-31T03:10:51;101215.59;;;19.70;24.41
13478;BME280;12598;62.382;17.344;2022-10-31T03:12:07;101190.25;;;19.46;24.32
13478;BME280;12598;62.382;17.344;2022-10-31T03:14:26;101175.59;;;19.31;24.44
13478;BME280;12598;62.382;17.344;2022-10-31T03:15:41;101193.94;;;19.36;24.54
13478;BME280;12598;62.382;17.344;2022-10-31T03:16:49;101199.13;;;19.46;24.65
13478;BME280;12598;62.382;17.344;2022-10-31T03:18:06;101210.41;;;19.59;24.73
13478;BME280;12598;62.382;17.344;2022-10-31T03:19:12;101183.94;;;19.38;24.43
13478;BME280;12598;62.382;17.344;2022-10-31T03:20:23;101161.97;;;19.25;24.60
13478;BME280;12598;62.382;17.344;2022-10-31T03:22:34;101178.59;;;19.28;24.38
13478;BME280;12598;62.382;17.344;2022-10-31T03:23:37;101156.47;;;19.17;24.67
13478;BME280;12598;62.382;17.344;2022-10-31T03:24:41;101155.19;;;19.11;24.79
13478;BME280;12598;62.382;17.344;2022-10-31T03:25:45;101185.63;;;19.29;24.54
13478;BME280;12598;62.382;17.344;2022-10-31T03:26:52;101190.56;;;19.34;24.75
13478;BME280;12598;62.382;17.344;2022-10-31T03:27:57;101144.47;;;19.11;24.61
13478;BME280;12598;62.382;17.344;2022-10-31T03:29:05;101176.06;;;19.27;24.33
13478;BME280;12598;62.382;17.344;2022-10-31T03:30:12;101180.84;;;19.33;24.46
13478;BME280;12598;62.382;17.344;2022-10-31T03:31:31;101157.72;;;19.22;24.44
13478;BME280;12598;62.382;17.344;2022-10-31T03:32:38;101229.47;;;19.56;24.88
13478;BME280;12598;62.382;17.344;2022-10-31T03:33:42;101190.16;;;19.38;24.61
13478;BME280;12598;62.382;17.344;2022-10-31T03:34:47;101159.00;;;19.18;24.68
13478;BME280;12598;62.382;17.344;2022-10-31T03:35:52;101107.00;;;18.83;24.29
13478;BME280;12598;62.382;17.344;2022-10-31T03:37:01;101183.94;;;19.28;24.37
13478;BME280;12598;62.382;17.344;2022-10-31T03:38:04;101178.28;;;19.31;24.44
13478;BME280;12598;62.382;17.344;2022-10-31T03:39:11;101094.91;;;18.79;24.65
13478;BME280;12598;62.382;17.344;2022-10-31T03:40:16;101212.94;;;19.51;24.11
13478;BME280;12598;62.382;17.344;2022-10-31T03:41:23;101162.78;;;19.25;24.60
13478;BME280;12598;62.382;17.344;2022-10-31T03:42:30;101175.19;;;19.36;24.31
13478;BME280;12598;62.382;17.344;2022-10-31T03:43:38;101196.75;;;19.43;24.64
13478;BME280;12598;62.382;17.344;2022-10-31T03:44:46;101084.75;;;18.73;24.36
13478;BME280;12598;62.382;17.344;2022-10-31T03:45:52;101112.50;;;18.91;24.45
13478;BME280;12598;62.382;17.344;2022-10-31T03:46:54;101201.22;;;19.52;24.34
13478;BME280;12598;62.382;17.344;2022-10-31T03:47:57;101099.91;;;18.91;24.44
13478;BME280;12598;62.382;17.344;2022-10-31T03:49:01;101202.38;;;19.50;24.47
13478;BME280;12598;62.382;17.344;2022-10-31T03:50:05;101114.59;;;18.97;24.41
13478;BME280;12598;62.382;17.344;2022-10-31T03:51:17;101189.00;;;19.40;24.71
13478;BME280;12598;62.382;17.344;2022-10-31T03:52:41;101205.59;;;19.53;24.62
13478;BME280;12598;62.382;17.344;2022-10-31T03:54:08;101156.41;;;19.36;24.47
13478;BME280;12598;62.382;17.344;2022-10-31T03:55:27;101166.41;;;19.43;24.29
13478;BME280;12598;62.382;17.344;2022-10-31T03:56:43;101170.63;;;19.45;24.18
13478;BME280;12598;62.382;17.344;2022-10-31T03:59:07;101159.38;;;19.33;24.64
13478;BME280;12598;62.382;17.344;2022-10-31T04:00:12;101141.09;;;19.19;24.34
13478;BME280;12598;62.382;17.344;2022-10-31T04:01:21;101122.16;;;19.11;24.41
13478;BME280;12598;62.382;17.344;2022-10-31T04:02:29;101168.41;;;19.32;24.43
13478;BME280;12598;62.382;17.344;2022-10-31T04:03:34;101181.25;;;19.38;24.45
13478;BME280;12598;62.382;17.344;2022-10-31T04:04:40;101171.81;;;19.34;24.38
13478;BME280;12598;62.382;17.344;2022-10-31T04:05:45;101043.63;;;18.55;24.41
13478;BME280;12598;62.382;17.344;2022-10-31T04:06:50;101124.88;;;19.01;24.36
13478;BME280;12598;62.382;17.344;2022-10-31T04:07:54;101193.78;;;19.46;24.79
13478;BME280;12598;62.382;17.344;2022-10-31T04:09:00;101199.13;;;19.46;24.55
13478;BME280;12598;62.382;17.344;2022-10-31T04:10:07;101074.88;;;18.73;24.71
13478;BME280;12598;62.382;17.344;2022-10-31T04:11:11;101069.22;;;18.76;24.72
13478;BME280;12598;62.382;17.344;2022-10-31T04:12:16;101061.38;;;18.65;24.65
13478;BME280;12598;62.382;17.344;2022-10-31T04:13:57;101166.84;;;19.38;24.58
13478;BME280;12598;62.382;17.344;2022-10-31T04:15:02;101118.47;;;19.12;24.48
13478;BME280;12598;62.382;17.344;2022-10-31T04:16:08;101045.84;;;18.69;24.73
13478;BME280;12598;62.382;17.344;2022-10-31T04:17:20;101163.06;;;19.32;24.22
13478;BME280;12598;62.382;17.344;2022-10-31T04:18:25;101181.22;;;19.47;24.27
13478;BME280;12598;62.382;17.344;2022-10-31T04:19:28;101156.84;;;19.31;24.64
13478;BME280;12598;62.382;17.344;2022-10-31T04:20:36;101131.50;;;19.16;24.57
13478;BME280;12598;62.382;17.344;2022-10-31T04:21:39;101099.38;;;18.97;24.99
13478;BME280;12598;62.382;17.344;2022-10-31T04:22:41;101137.97;;;19.23;24.69
13478;BME280;12598;62.382;17.344;2022-10-31T04:23:43;101155.31;;;19.29;24.69
13478;BME280;12598;62.382;17.344;2022-10-31T04:24:52;101180.53;;;19.45;24.48
13478;BME280;12598;62.382;17.344;2022-10-31T04:25:54;101174.47;;;19.43;24.49
13478;BME280;12598;62.382;17.344;2022-10-31T04:26:56;101117.94;;;19.08;24.69
13478;BME280;12598;62.382;17.344;2022-10-31T04:27:58;101107.81;;;19.02;24.58
13478;BME280;12598;62.382;17.344;2022-10-31T04:29:00;101106.38;;;19.08;24.91
13478;BME280;12598;62.382;17.344;2022-10-31T04:30:03;101118.22;;;19.15;24.87
13478;BME280;12598;62.382;17.344;2022-10-31T04:31:09;101140.50;;;19.25;24.51
13478;BME280;12598;62.382;17.344;2022-10-31T04:32:12;101118.22;;;19.15;24.59
13478;BME280;12598;62.382;17.344;2022-10-31T04:33:14;101165.88;;;19.30;24.63
13478;BME280;12598;62.382;17.344;2022-10-31T04:34:19;101134.31;;;19.15;24.83
13478;BME280;12598;62.382;17.344;2022-10-31T04:35:21;101061.38;;;18.65;24.82
13478;BME280;12598;62.382;17.344;2022-10-31T04:36:23;101003.63;;;18.34;24.58
13478;BME280;12598;62.382;17.344;2022-10-31T04:37:32;101125.31;;;19.16;24.54
13478;BME280;12598;62.382;17.344;2022-10-31T04:38:36;101014.44;;;18.52;24.42
13478;BME280;12598;62.382;17.344;2022-10-31T04:39:46;101096.81;;;19.05;24.69
13478;BME280;12598;62.382;17.344;2022-10-31T04:41:08;101117.66;;;19.21;24.45
13478;BME280;12598;62.382;17.344;2022-10-31T04:42:29;101146.38;;;19.38;24.74
13478;BME280;12598;62.382;17.344;2022-10-31T04:43:33;101089.47;;;18.98;24.67
13478;BME280;12598;62.382;17.344;2022-10-31T04:44:35;101108.63;;;19.12;24.46
13478;BME280;12598;62.382;17.344;2022-10-31T04:45:37;101172.91;;;19.40;24.39
13478;BME280;12598;62.382;17.344;2022-10-31T04:46:39;101063.56;;;18.79;24.57
13478;BME280;12598;62.382;17.344;2022-10-31T04:47:42;101126.00;;;19.08;24.74
13478;BME280;12598;62.382;17.344;2022-10-31T04:48:44;101103.16;;;19.04;24.68
13478;BME280;12598;62.382;17.344;2022-10-31T04:49:46;101117.50;;;19.13;24.71
13478;BME280;12598;62.382;17.344;2022-10-31T04:50:47;101123.31;;;19.18;24.96
13478;BME280;12598;62.382;17.344;2022-10-31T04:51:49;100999.13;;;18.35;24.64
13478;BME280;12598;62.382;17.344;2022-10-31T04:52:52;101111.44;;;19.11;24.87
13478;BME280;12598;62.382;17.344;2022-10-31T04:53:59;100965.03;;;18.37;24.81
13478;BME280;12598;62.382;17.344;2022-10-31T04:55:19;101117.78;;;19.29;24.42
13478;BME280;12598;62.382;17.344;2022-10-31T04:56:39;101099.19;;;19.18;24.43
13478;BME280;12598;62.382;17.344;2022-10-31T04:57:49;101100.72;;;19.20;24.69
13478;BME280;12598;62.382;17.344;2022-10-31T04:58:53;101002.16;;;18.59;24.71
13478;BME280;12598;62.382;17.344;2022-10-31T04:59:56;101003.16;;;18.58;24.85
13478;BME280;12598;62.382;17.344;2022-10-31T05:00:58;101117.66;;;19.21;24.76
13478;BME280;12598;62.382;17.344;2022-10-31T05:02:00;101026.09;;;18.70;24.40
13478;BME280;12598;62.382;17.344;2022-10-31T05:03:16;101125.66;;;19.30;24.72
13478;BME280;12598;62.382;17.344;2022-10-31T05:04:17;101003.16;;;18.48;24.75
13478;BME280;12598;62.382;17.344;2022-10-31T05:05:23;101083.00;;;19.00;24.68
13478;BME280;12598;62.382;17.344;2022-10-31T05:06:25;101025.84;;;18.73;24.50
13478;BME280;12598;62.382;17.344;2022-10-31T05:07:28;100984.72;;;18.45;24.53
13478;BME280;12598;62.382;17.344;2022-10-31T05:08:30;100974.75;;;18.38;24.70
13478;BME280;12598;62.382;17.344;2022-10-31T05:09:32;101141.31;;;19.35;24.49
13478;BME280;12598;62.382;17.344;2022-10-31T05:10:34;101102.13;;;19.15;24.39
13478;BME280;12598;62.382;17.344;2022-10-31T05:11:37;101122.41;;;19.36;24.68
13478;BME280;12598;62.382;17.344;2022-10-31T05:13:03;101125.50;;;19.41;24.45
13478;BME280;12598;62.382;17.344;2022-10-31T05:14:25;101121.84;;;19.33;24.44
13478;BME280;12598;62.382;17.344;2022-10-31T05:15:52;101073.66;;;19.14;24.52
13478;BME280;12598;62.382;17.344;2022-10-31T05:17:13;101085.19;;;19.24;24.45
13478;BME280;12598;62.382;17.344;2022-10-31T05:18:37;101082.13;;;19.19;24.88
13478;BME280;12598;62.382;17.344;2022-10-31T05:19:57;101081.53;;;19.25;24.44
13478;BME280;12598;62.382;17.344;2022-10-31T05:21:31;101103.22;;;19.31;24.64
13478;BME280;12598;62.382;17.344;2022-10-31T05:22:36;101104.19;;;19.30;24.52
13478;BME280;12598;62.382;17.344;2022-10-31T05:23:38;101093.38;;;19.13;24.57
13478;BME280;12598;62.382;17.344;2022-10-31T05:24:48;101017.50;;;18.76;24.93
13478;BME280;12598;62.382;17.344;2022-10-31T05:25:50;100949.56;;;18.31;24.57
13478;BME280;12598;62.382;17.344;2022-10-31T05:26:52;101103.56;;;19.19;24.79
13478;BME280;12598;62.382;17.344;2022-10-31T05:27:55;101099.31;;;19.16;24.76
13478;BME280;12598;62.382;17.344;2022-10-31T05:28:57;101118.19;;;19.24;24.81
13478;BME280;12598;62.382;17.344;2022-10-31T05:29:59;101070.13;;;19.04;24.59
13478;BME280;12598;62.382;17.344;2022-10-31T05:31:05;101094.66;;;19.18;24.81
13478;BME280;12598;62.382;17.344;2022-10-31T05:32:07;101078.44;;;19.10;24.51
13478;BME280;12598;62.382;17.344;2022-10-31T05:33:29;101076.19;;;19.15;24.75
13478;BME280;12598;62.382;17.344;2022-10-31T05:34:43;101077.88;;;19.16;24.60
13478;BME280;12598;62.382;17.344;2022-10-31T05:36:03;101070.53;;;19.18;25.07
13478;BME280;12598;62.382;17.344;2022-10-31T05:37:08;101056.13;;;19.10;25.09
13478;BME280;12598;62.382;17.344;2022-10-31T05:38:11;101038.75;;;18.87;24.77
13478;BME280;12598;62.382;17.344;2022-10-31T05:39:13;101050.56;;;18.94;24.84
13478;BME280;12598;62.382;17.344;2022-10-31T05:40:19;101100.59;;;19.22;24.48
13478;BME280;12598;62.382;17.344;2022-10-31T05:41:21;100978.13;;;18.40;24.87
13478;BME280;12598;62.382;17.344;2022-10-31T05:42:23;101061.00;;;18.97;24.95
13478;BME280;12598;62.382;17.344;2022-10-31T05:43:26;100987.09;;;18.48;24.89
13478;BME280;12598;62.382;17.344;2022-10-31T05:44:28;101062.28;;;18.93;24.91
13478;BME280;12598;62.382;17.344;2022-10-31T05:45:46;100987.84;;;18.50;24.83
13478;BME280;12598;62.382;17.344;2022-10-31T05:47:07;100992.63;;;18.47;24.56
13478;BME280;12598;62.382;17.344;2022-10-31T05:48:28;101099.59;;;19.23;24.77
13478;BME280;12598;62.382;17.344;2022-10-31T05:49:55;101031.81;;;18.94;25.05
13478;BME280;12598;62.382;17.344;2022-10-31T05:51:16;101071.41;;;19.19;24.54
13478;BME280;12598;62.382;17.344;2022-10-31T05:52:19;101101.78;;;19.37;24.79
13478;BME280;12598;62.382;17.344;2022-10-31T05:53:28;101050.28;;;18.97;24.79
13478;BME280;12598;62.382;17.344;2022-10-31T05:54:30;100970.78;;;18.42;24.93
13478;BME280;12598;62.382;17.344;2022-10-31T05:55:32;101071.53;;;19.08;24.97
13478;BME280;12598;62.382;17.344;2022-10-31T05:56:48;100922.59;;;18.23;25.08
13478;BME280;12598;62.382;17.344;2022-10-31T05:57:53;101051.66;;;19.01;24.91
13478;BME280;12598;62.382;17.344;2022-10-31T05:58:56;101079.00;;;19.14;24.89
13478;BME280;12598;62.382;17.344;2022-10-31T06:00:00;101107.19;;;19.27;24.49
13478;BME280;12598;62.382;17.344;2022-10-31T06:01:02;100973.59;;;18.40;24.95
13478;BME280;12598;62.382;17.344;2022-10-31T06:02:05;101059.03;;;18.89;24.95
13478;BME280;12598;62.382;17.344;2022-10-31T06:03:24;101076.31;;;19.14;24.98
13478;BME280;12598;62.382;17.344;2022-10-31T06:04:29;101091.28;;;19.16;24.92
13478;BME280;12598;62.382;17.344;2022-10-31T06:05:33;101110.72;;;19.28;25.03